createdAt,value
2018-12-22T00:02:26.402Z,2.60
2018-12-22T00:04:54.566Z,2.50
2018-12-22T00:07:22.748Z,2.30
2018-12-22T00:09:50.962Z,2.37
2018-12-22T00:12:19.237Z,2.40
2018-12-22T00:14:47.454Z,2.42
2018-12-22T00:17:15.646Z,2.10
2018-12-22T00:19:43.793Z,2.52
2018-12-22T00:22:11.933Z,2.40
2018-12-22T00:24:40.115Z,2.58
2018-12-22T00:27:08.329Z,2.33
2018-12-22T00:29:36.463Z,2.52
2018-12-22T00:32:04.653Z,2.50
2018-12-22T00:34:32.819Z,2.30
2018-12-22T00:37:01.029Z,2.12
2018-12-22T00:39:29.175Z,2.17
2018-12-22T00:41:57.470Z,2.30
2018-12-22T00:44:25.705Z,2.17
2018-12-22T00:46:54.042Z,2.10
2018-12-22T00:49:22.265Z,2.35
2018-12-22T00:51:50.416Z,2.50
2018-12-22T00:54:18.646Z,2.60
2018-12-22T00:56:46.864Z,2.40
2018-12-22T00:59:15.058Z,2.30
2018-12-22T01:01:43.306Z,2.30
2018-12-22T01:04:11.595Z,2.52
2018-12-22T01:06:39.872Z,2.60
2018-12-22T01:09:08.068Z,2.70
2018-12-22T01:11:36.340Z,2.50
2018-12-22T01:14:05.043Z,2.65
2018-12-22T01:16:33.260Z,2.85
2018-12-22T01:19:01.408Z,2.72
2018-12-22T01:21:29.571Z,2.90
2018-12-22T01:23:57.814Z,2.73
2018-12-22T01:26:26.104Z,2.67
2018-12-22T01:28:54.255Z,2.80
2018-12-22T01:31:22.579Z,2.90
2018-12-22T01:33:50.813Z,2.90
2018-12-22T01:36:19.094Z,2.50
2018-12-22T01:38:47.335Z,2.47
2018-12-22T01:41:15.620Z,2.22
2018-12-22T01:43:43.857Z,2.20
2018-12-22T01:46:12.025Z,2.10
2018-12-22T01:48:40.189Z,2.00
2018-12-22T01:51:08.448Z,2.00
2018-12-22T01:53:36.683Z,2.00
2018-12-22T01:56:04.883Z,2.10
2018-12-22T01:58:33.059Z,1.98
2018-12-22T02:01:01.414Z,1.82
2018-12-22T02:03:29.668Z,1.70
2018-12-22T02:05:57.866Z,2.00
2018-12-22T02:08:26.174Z,1.90
2018-12-22T02:10:54.385Z,1.90
2018-12-22T02:13:22.612Z,1.80
2018-12-22T02:15:50.856Z,1.70
2018-12-22T02:18:21.131Z,1.60
2018-12-22T02:20:49.417Z,1.80
2018-12-22T02:23:17.584Z,2.10
2018-12-22T02:25:45.804Z,2.00
2018-12-22T02:28:14.047Z,2.10
2018-12-22T02:30:42.435Z,2.10
2018-12-22T02:33:10.653Z,2.10
2018-12-22T02:35:38.917Z,2.10
2018-12-22T02:38:07.232Z,2.25
2018-12-22T02:40:35.435Z,2.00
2018-12-22T02:43:03.822Z,2.40
2018-12-22T02:45:32.071Z,2.20
2018-12-22T02:48:00.382Z,2.30
2018-12-22T02:50:28.612Z,2.20
2018-12-22T02:52:56.838Z,2.40
2018-12-22T02:55:24.997Z,2.50
2018-12-22T02:57:53.223Z,2.33
2018-12-22T03:00:21.460Z,2.50
2018-12-22T03:02:49.706Z,2.20
2018-12-22T03:05:17.979Z,2.25
2018-12-22T03:07:46.147Z,2.10
2018-12-22T03:10:14.360Z,1.90
2018-12-22T03:12:42.664Z,1.92
2018-12-22T03:15:10.863Z,1.90
2018-12-22T03:17:39.424Z,2.08
2018-12-22T03:20:07.748Z,2.00
2018-12-22T03:22:35.887Z,1.85
2018-12-22T03:25:04.168Z,1.70
2018-12-22T03:27:32.378Z,1.92
2018-12-22T03:30:00.571Z,1.80
2018-12-22T03:32:28.757Z,1.80
2018-12-22T03:34:56.996Z,1.80
2018-12-22T03:37:25.129Z,2.00
2018-12-22T03:39:53.290Z,1.90
2018-12-22T03:42:21.407Z,2.15
2018-12-22T03:44:49.622Z,2.00
2018-12-22T03:47:17.863Z,1.80
2018-12-22T03:49:46.113Z,2.15
2018-12-22T03:52:14.330Z,2.00
2018-12-22T03:54:42.564Z,2.00
2018-12-22T03:57:10.701Z,2.05
2018-12-22T03:59:39.063Z,2.22
2018-12-22T04:02:07.222Z,2.20
2018-12-22T04:04:35.426Z,2.20
2018-12-22T04:07:03.783Z,1.90
2018-12-22T04:09:32.003Z,2.10
2018-12-22T04:12:00.156Z,2.00
2018-12-22T04:14:28.551Z,1.80
2018-12-22T04:16:56.743Z,2.00
2018-12-22T04:19:25.103Z,1.90
2018-12-22T04:21:53.261Z,1.77
2018-12-22T04:24:21.500Z,1.75
2018-12-22T04:26:49.613Z,1.90
2018-12-22T04:29:17.772Z,2.10
2018-12-22T04:31:46.013Z,1.90
2018-12-22T04:34:14.139Z,1.70
2018-12-22T04:36:42.363Z,1.67
2018-12-22T04:39:10.472Z,1.98
2018-12-22T04:41:38.712Z,1.80
2018-12-22T04:44:06.931Z,1.80
2018-12-22T04:46:35.111Z,1.90
2018-12-22T04:49:03.436Z,1.80
2018-12-22T04:51:31.699Z,2.00
2018-12-22T04:53:59.912Z,1.82
2018-12-22T04:56:28.418Z,1.90
2018-12-22T04:58:56.588Z,1.80
2018-12-22T05:01:24.727Z,1.77
2018-12-22T05:03:52.855Z,1.80
2018-12-22T05:06:21.107Z,1.90
2018-12-22T05:08:49.364Z,1.90
2018-12-22T05:11:17.540Z,1.70
2018-12-22T05:13:45.684Z,1.60
2018-12-22T05:16:13.925Z,1.72
2018-12-22T05:18:42.172Z,1.90
2018-12-22T05:21:10.376Z,1.70
2018-12-22T05:23:38.620Z,2.10
2018-12-22T05:26:06.831Z,2.00
2018-12-22T05:28:34.958Z,2.20
2018-12-22T05:31:03.242Z,2.40
2018-12-22T05:33:31.519Z,2.40
2018-12-22T05:35:59.674Z,2.30
2018-12-22T05:38:28.033Z,2.20
2018-12-22T05:40:56.247Z,2.30
2018-12-22T05:43:24.359Z,2.13
2018-12-22T05:45:52.564Z,2.17
2018-12-22T05:48:20.847Z,2.20
2018-12-22T05:50:49.097Z,2.10
2018-12-22T05:53:17.313Z,1.85
2018-12-22T05:55:45.525Z,2.00
2018-12-22T05:58:13.665Z,1.70
2018-12-22T06:00:42.018Z,1.80
2018-12-22T06:03:10.212Z,1.60
2018-12-22T06:05:38.332Z,1.50
2018-12-22T06:08:06.544Z,1.65
2018-12-22T06:10:34.679Z,1.60
2018-12-22T06:13:02.883Z,1.40
2018-12-22T06:15:31.021Z,1.47
2018-12-22T06:17:59.216Z,1.50
2018-12-22T06:20:27.592Z,1.50
2018-12-22T06:22:55.715Z,1.27
2018-12-22T06:25:23.851Z,1.47
2018-12-22T06:27:52.006Z,1.57
2018-12-22T06:30:20.273Z,1.40
2018-12-22T06:32:48.408Z,1.32
2018-12-22T06:35:16.648Z,1.45
2018-12-22T06:37:44.789Z,1.30
2018-12-22T06:40:12.916Z,1.47
2018-12-22T06:42:41.129Z,1.27
2018-12-22T06:45:09.556Z,1.30
2018-12-22T06:47:37.767Z,1.30
2018-12-22T06:50:06.266Z,1.20
2018-12-22T06:52:34.551Z,1.37
2018-12-22T06:55:02.696Z,1.20
2018-12-22T06:57:31.020Z,1.40
2018-12-22T06:59:59.179Z,1.40
2018-12-22T07:02:27.455Z,1.17
2018-12-22T07:04:55.687Z,1.20
2018-12-22T07:07:24.013Z,1.30
2018-12-22T07:09:52.194Z,1.30
2018-12-22T07:12:20.370Z,1.52
2018-12-22T07:14:48.505Z,1.22
2018-12-22T07:17:16.735Z,1.40
2018-12-22T07:19:44.964Z,1.20
2018-12-22T07:22:13.116Z,1.52
2018-12-22T07:24:41.318Z,1.30
2018-12-22T07:27:09.640Z,1.35
2018-12-22T07:29:37.844Z,1.40
2018-12-22T07:32:06.127Z,1.50
2018-12-22T07:34:34.543Z,1.50
2018-12-22T07:37:02.728Z,1.40
2018-12-22T07:39:30.923Z,1.40
2018-12-22T07:41:59.096Z,1.42
2018-12-22T07:44:27.379Z,1.30
2018-12-22T07:46:55.563Z,1.40
2018-12-22T07:49:23.708Z,1.40
2018-12-22T07:51:51.991Z,1.30
2018-12-22T07:54:20.234Z,1.60
2018-12-22T07:56:48.456Z,1.67
2018-12-22T07:59:16.654Z,1.35
2018-12-22T08:01:44.876Z,1.60
2018-12-22T08:04:13.096Z,1.60
2018-12-22T08:06:41.302Z,1.32
2018-12-22T08:09:09.676Z,1.50
2018-12-22T08:11:38.193Z,1.40
2018-12-22T08:14:06.592Z,1.40
2018-12-22T08:16:34.746Z,1.60
2018-12-22T08:19:02.929Z,1.87
2018-12-22T08:21:31.249Z,1.45
2018-12-22T08:23:59.552Z,1.50
2018-12-22T08:26:27.928Z,1.32
2018-12-22T08:28:56.045Z,1.70
2018-12-22T08:31:24.262Z,1.70
2018-12-22T08:33:52.469Z,1.65
2018-12-22T08:36:20.586Z,1.82
2018-12-22T08:38:48.904Z,1.77
2018-12-22T08:41:17.253Z,1.60
2018-12-22T08:43:45.430Z,1.75
2018-12-22T08:46:13.800Z,1.60
2018-12-22T08:48:42.334Z,1.60
2018-12-22T08:51:10.600Z,1.57
2018-12-22T08:53:38.860Z,1.60
2018-12-22T08:56:07.213Z,1.63
2018-12-22T08:58:40.296Z,1.32
2018-12-22T09:01:08.667Z,1.50
2018-12-22T09:03:36.992Z,1.47
2018-12-22T09:06:08.302Z,1.27
2018-12-22T09:08:36.450Z,1.60
2018-12-22T09:11:04.731Z,1.40
2018-12-22T09:13:32.977Z,1.50
2018-12-22T09:16:01.347Z,1.70
2018-12-22T09:18:29.647Z,1.50
2018-12-22T09:20:57.783Z,1.70
2018-12-22T09:23:26.518Z,2.00
2018-12-22T09:25:54.856Z,1.70
2018-12-22T09:28:23.276Z,1.70
2018-12-22T09:30:51.543Z,1.72
2018-12-22T09:33:19.866Z,1.70
2018-12-22T09:35:48.275Z,1.50
2018-12-22T09:38:16.458Z,1.52
2018-12-22T09:40:44.828Z,1.63
2018-12-22T09:43:13.172Z,1.80
2018-12-22T09:45:41.400Z,2.10
2018-12-22T09:48:09.767Z,1.80
2018-12-22T09:50:38.220Z,1.97
2018-12-22T09:53:06.433Z,1.98
2018-12-22T09:55:34.668Z,2.02
2018-12-22T09:58:02.811Z,1.87
2018-12-22T10:00:31.065Z,1.80
2018-12-22T10:02:59.175Z,2.00
2018-12-22T10:05:27.408Z,2.00
2018-12-22T10:07:55.655Z,1.87
2018-12-22T10:10:23.912Z,1.90
2018-12-22T10:12:52.208Z,1.90
2018-12-22T10:15:21.569Z,1.75
2018-12-22T10:17:49.693Z,1.95
2018-12-22T10:20:17.867Z,1.65
2018-12-22T10:22:47.308Z,1.90
2018-12-22T10:25:15.501Z,1.65
2018-12-22T10:27:50.862Z,1.80
2018-12-22T10:30:19.621Z,1.80
2018-12-22T10:32:52.850Z,1.40
2018-12-22T10:35:29.714Z,1.30
2018-12-22T10:37:58.753Z,1.50
2018-12-22T10:40:27.245Z,1.33
2018-12-22T10:42:56.704Z,1.30
2018-12-22T10:45:24.909Z,1.60
2018-12-22T10:47:53.216Z,1.60
2018-12-22T10:50:21.831Z,1.30
2018-12-22T10:52:52.527Z,1.62
2018-12-22T10:55:20.912Z,2.22
2018-12-22T10:57:49.052Z,2.17
2018-12-22T11:00:18.292Z,2.00
2018-12-22T11:02:47.400Z,2.02
2018-12-22T11:05:16.676Z,1.90
2018-12-22T11:07:45.341Z,2.07
2018-12-22T11:10:18.764Z,2.15
2018-12-22T11:12:46.939Z,2.17
2018-12-22T11:15:15.152Z,2.13
2018-12-22T11:17:43.260Z,2.00
2018-12-22T11:20:11.767Z,1.85
2018-12-22T11:22:40.117Z,1.75
2018-12-22T11:25:27.264Z,1.70
2018-12-22T11:27:59.432Z,1.75
2018-12-22T11:30:32.997Z,1.77
2018-12-22T11:33:03.311Z,1.67
2018-12-22T11:35:31.718Z,2.02
2018-12-22T11:37:59.896Z,1.72
2018-12-22T11:40:28.740Z,1.82
2018-12-22T11:42:59.390Z,1.60
2018-12-22T11:45:30.297Z,2.02
2018-12-22T11:50:14.411Z,1.87
2018-12-22T11:52:42.723Z,2.10
2018-12-22T11:55:10.968Z,2.08
2018-12-22T11:57:39.268Z,1.77
2018-12-22T12:00:09.212Z,2.10
2018-12-22T12:02:37.521Z,2.10
2018-12-22T12:05:07.493Z,2.12
2018-12-22T12:07:35.848Z,2.37
2018-12-22T12:10:05.133Z,1.90
2018-12-22T12:12:33.319Z,2.15
2018-12-22T12:15:01.560Z,2.50
2018-12-22T12:19:42.463Z,2.10
2018-12-22T12:22:15.025Z,2.30
2018-12-22T12:24:43.190Z,2.25
2018-12-22T12:27:11.615Z,2.37
2018-12-22T12:29:43.898Z,2.30
2018-12-22T12:32:13.697Z,2.37
2018-12-22T12:34:43.656Z,2.30
2018-12-22T12:37:17.717Z,2.35
2018-12-22T12:39:47.658Z,2.60
2018-12-22T12:42:16.341Z,2.60
2018-12-22T12:44:47.280Z,2.77
2018-12-22T12:47:16.832Z,2.92
2018-12-22T12:49:46.439Z,2.40
2018-12-22T12:52:17.276Z,2.70
2018-12-22T12:54:45.586Z,2.60
2018-12-22T12:57:19.882Z,2.70
2018-12-22T12:59:48.158Z,2.70
2018-12-22T13:02:17.010Z,2.77
2018-12-22T13:04:46.955Z,2.70
2018-12-22T13:07:18.658Z,2.55
2018-12-22T13:09:47.203Z,2.42
2018-12-22T13:12:19.859Z,2.23
2018-12-22T13:14:50.065Z,2.30
2018-12-22T13:17:18.379Z,2.70
2018-12-22T13:19:46.563Z,2.47
2018-12-22T13:22:14.928Z,2.33
2018-12-22T13:24:43.113Z,1.82
2018-12-22T13:27:11.211Z,2.50
2018-12-22T13:29:39.431Z,2.12
2018-12-22T13:32:09.871Z,2.58
2018-12-22T13:34:37.963Z,2.47
2018-12-22T13:37:06.249Z,2.30
2018-12-22T13:39:34.472Z,2.15
2018-12-22T13:42:02.729Z,2.10
2018-12-22T13:44:31.085Z,2.30
2018-12-22T13:46:59.312Z,2.10
2018-12-22T13:49:27.738Z,2.30
2018-12-22T13:51:56.420Z,2.27
2018-12-22T13:54:25.717Z,2.20
2018-12-22T13:56:54.379Z,2.07
2018-12-22T13:59:22.711Z,2.40
2018-12-22T14:01:54.460Z,2.00
2018-12-22T14:04:22.704Z,2.12
2018-12-22T14:06:50.928Z,2.40
2018-12-22T14:09:19.396Z,2.10
2018-12-22T14:11:57.609Z,2.00
2018-12-22T14:14:38.370Z,2.17
2018-12-22T14:17:16.805Z,2.22
2018-12-22T14:19:50.401Z,2.20
2018-12-22T14:22:18.661Z,1.90
2018-12-22T14:24:49.242Z,2.10
2018-12-22T14:27:17.525Z,2.05
2018-12-22T14:29:45.713Z,2.35
2018-12-22T14:32:14.094Z,2.02
2018-12-22T14:34:54.457Z,2.37
2018-12-22T14:37:22.600Z,2.22
2018-12-22T14:39:50.817Z,2.22
2018-12-22T14:42:19.106Z,2.10
2018-12-22T14:44:47.488Z,2.35
2018-12-22T14:47:15.829Z,2.37
2018-12-22T14:49:44.099Z,2.47
2018-12-22T14:52:12.267Z,2.50
2018-12-22T14:54:40.628Z,2.72
2018-12-22T14:57:08.917Z,2.23
2018-12-22T14:59:37.908Z,2.77
2018-12-22T15:02:06.125Z,2.00
2018-12-22T15:04:34.437Z,2.35
2018-12-22T15:07:03.310Z,2.17
2018-12-22T15:09:31.453Z,2.27
2018-12-22T15:11:59.700Z,2.30
2018-12-22T15:14:28.151Z,2.30
2018-12-22T15:16:56.513Z,2.20
2018-12-22T15:19:24.987Z,2.30
2018-12-22T15:21:57.166Z,2.40
2018-12-22T15:24:25.314Z,2.30
2018-12-22T15:26:53.667Z,2.10
2018-12-22T15:29:21.985Z,2.20
2018-12-22T15:31:50.188Z,2.22
2018-12-22T15:34:18.424Z,2.00
2018-12-22T15:36:46.775Z,1.90
2018-12-22T15:39:14.968Z,2.12
2018-12-22T15:41:43.135Z,2.30
2018-12-22T15:44:11.460Z,2.10
2018-12-22T15:46:39.899Z,2.02
2018-12-22T15:49:08.669Z,2.02
2018-12-22T15:51:36.935Z,2.07
2018-12-22T15:54:05.871Z,2.10
2018-12-22T15:56:34.092Z,2.40
2018-12-22T15:59:02.516Z,1.98
2018-12-22T16:01:31.184Z,2.70
2018-12-22T16:04:01.783Z,2.30
2018-12-22T16:06:30.045Z,2.65
2018-12-22T16:09:01.757Z,2.50
2018-12-22T16:11:29.925Z,2.40
2018-12-22T16:14:00.201Z,2.70
2018-12-22T16:16:29.105Z,2.80
2018-12-22T16:18:57.402Z,2.60
2018-12-22T16:21:25.637Z,2.85
2018-12-22T16:23:53.824Z,3.20
2018-12-22T16:26:22.100Z,2.72
2018-12-22T16:28:56.788Z,3.10
2018-12-22T16:31:25.164Z,3.70
2018-12-22T16:33:53.356Z,4.25
2018-12-22T16:36:21.621Z,4.10
2018-12-22T16:38:49.905Z,4.25
2018-12-22T16:41:18.028Z,4.22
2018-12-22T16:43:46.247Z,4.05
2018-12-22T16:46:14.572Z,3.70
2018-12-22T16:48:45.124Z,3.22
2018-12-22T16:51:13.334Z,3.15
2018-12-22T16:53:41.547Z,3.70
2018-12-22T16:56:09.764Z,4.10
2018-12-22T16:58:40.008Z,3.70
2018-12-22T17:02:13.894Z,3.20
2018-12-22T17:04:42.415Z,4.20
2018-12-22T17:07:10.619Z,2.98
2018-12-22T17:09:39.028Z,2.85
2018-12-22T17:12:07.254Z,3.37
2018-12-22T17:14:35.503Z,3.10
2018-12-22T17:17:03.771Z,2.85
2018-12-22T17:19:32.126Z,3.10
2018-12-22T17:22:10.977Z,2.87
2018-12-22T17:24:48.633Z,3.17
2018-12-22T17:27:16.850Z,3.30
2018-12-22T17:29:45.189Z,3.30
2018-12-22T17:32:13.411Z,3.65
2018-12-22T17:34:41.620Z,4.03
2018-12-22T17:37:09.845Z,4.75
2018-12-22T17:39:38.074Z,5.28
2018-12-22T17:42:06.381Z,5.90
2018-12-22T17:44:34.771Z,7.50
2018-12-22T17:47:03.461Z,7.03
2018-12-22T17:49:31.655Z,6.42
2018-12-22T17:52:00.155Z,6.40
2018-12-22T17:54:28.387Z,5.85
2018-12-22T17:56:56.620Z,5.20
2018-12-22T17:59:24.893Z,5.47
2018-12-22T18:01:53.185Z,4.63
2018-12-22T18:04:21.975Z,4.20
2018-12-22T18:06:50.166Z,4.00
2018-12-22T18:09:18.279Z,3.42
2018-12-22T18:11:46.887Z,3.33
2018-12-22T18:14:15.112Z,3.20
2018-12-22T18:16:43.259Z,3.37
2018-12-22T18:19:11.385Z,3.50
2018-12-22T18:21:39.699Z,3.77
2018-12-22T18:24:08.741Z,3.27
2018-12-22T18:26:36.873Z,3.30
2018-12-22T18:29:05.275Z,3.35
2018-12-22T18:31:34.955Z,3.70
2018-12-22T18:34:04.215Z,3.95
2018-12-22T18:36:32.471Z,4.20
2018-12-22T18:39:00.648Z,3.70
2018-12-22T18:41:28.791Z,3.70
2018-12-22T18:43:57.087Z,3.40
2018-12-22T18:46:25.270Z,3.00
2018-12-22T18:48:53.469Z,3.30
2018-12-22T18:51:21.667Z,3.20
2018-12-22T18:53:50.125Z,4.27
2018-12-22T18:56:18.291Z,5.10
2018-12-22T18:58:46.443Z,5.45
2018-12-22T19:01:14.599Z,5.67
2018-12-22T19:03:44.874Z,5.70
2018-12-22T19:06:13.116Z,5.17
2018-12-22T19:08:41.399Z,4.75
2018-12-22T19:11:11.953Z,3.73
2018-12-22T19:13:40.272Z,4.72
2018-12-22T19:16:08.510Z,4.60
2018-12-22T19:18:36.706Z,4.60
2018-12-22T19:21:04.918Z,4.08
2018-12-22T19:23:33.166Z,3.77
2018-12-22T19:26:01.491Z,3.72
2018-12-22T19:28:29.934Z,4.10
2018-12-22T19:30:58.159Z,4.55
2018-12-22T19:33:26.445Z,4.70
2018-12-22T19:35:54.747Z,4.70
2018-12-22T19:38:23.162Z,9.03
2018-12-22T19:40:51.691Z,7.20
2018-12-22T19:43:20.076Z,5.00
2018-12-22T19:45:48.284Z,4.47
2018-12-22T19:48:16.709Z,3.83
2018-12-22T19:50:44.820Z,4.20
2018-12-22T19:53:13.220Z,3.35
2018-12-22T19:55:41.596Z,3.22
2018-12-22T19:58:10.140Z,3.70
2018-12-22T20:00:38.281Z,3.67
2018-12-22T20:03:06.436Z,3.75
2018-12-22T20:05:34.709Z,4.28
2018-12-22T20:08:03.025Z,4.50
2018-12-22T20:10:31.221Z,4.05
2018-12-22T20:12:59.477Z,3.70
2018-12-22T20:15:27.665Z,3.67
2018-12-22T20:17:55.818Z,3.90
2018-12-22T20:20:24.151Z,3.50
2018-12-22T20:22:52.303Z,3.67
2018-12-22T20:25:20.467Z,3.92
2018-12-22T20:27:48.602Z,4.58
2018-12-22T20:30:16.976Z,4.60
2018-12-22T20:32:45.108Z,4.80
2018-12-22T20:35:13.365Z,5.42
2018-12-22T20:37:41.622Z,4.90
2018-12-22T20:40:09.785Z,5.58
2018-12-22T20:42:37.932Z,4.60
2018-12-22T20:45:06.525Z,5.00
2018-12-22T20:47:34.667Z,4.62
2018-12-22T20:50:03.026Z,4.20
2018-12-22T20:52:31.220Z,4.17
2018-12-22T20:54:59.434Z,4.20
2018-12-22T20:57:27.589Z,4.30
2018-12-22T20:59:55.736Z,4.28
2018-12-22T21:02:24.004Z,4.22
2018-12-22T21:04:52.742Z,4.20
2018-12-22T21:07:20.994Z,4.25
2018-12-22T21:09:49.231Z,4.03
2018-12-22T21:12:17.534Z,3.98
2018-12-22T21:14:45.765Z,4.17
2018-12-22T21:17:13.938Z,4.17
2018-12-22T21:19:42.229Z,3.85
2018-12-22T21:22:11.721Z,3.85
2018-12-22T21:24:39.891Z,3.87
2018-12-22T21:27:08.032Z,3.58
2018-12-22T21:29:36.323Z,3.52
2018-12-22T21:32:04.686Z,3.70
2018-12-22T21:34:32.979Z,3.80
2018-12-22T21:37:01.121Z,4.12
2018-12-22T21:39:29.315Z,4.15
2018-12-22T21:41:57.887Z,4.10
2018-12-22T21:44:26.068Z,4.15
2018-12-22T21:46:54.447Z,4.15
2018-12-22T21:49:22.701Z,4.10
2018-12-22T21:51:50.958Z,4.10
2018-12-22T21:54:19.127Z,3.98
2018-12-22T21:56:47.396Z,4.08
2018-12-22T21:59:15.541Z,3.70
2018-12-22T22:01:43.750Z,3.80
2018-12-22T22:04:11.884Z,3.83
2018-12-22T22:06:40.132Z,3.90
2018-12-22T22:09:08.326Z,3.83
2018-12-22T22:11:36.493Z,3.70
2018-12-22T22:14:04.611Z,3.62
2018-12-22T22:16:32.820Z,3.50
2018-12-22T22:19:01.074Z,3.85
2018-12-22T22:21:29.302Z,3.77
2018-12-22T22:23:57.467Z,3.93
2018-12-22T22:26:25.572Z,3.90
2018-12-22T22:28:53.773Z,3.60
2018-12-22T22:31:22.020Z,4.15
2018-12-22T22:33:50.132Z,3.90
2018-12-22T22:36:18.256Z,4.17
2018-12-22T22:38:46.444Z,4.30
2018-12-22T22:41:14.572Z,4.42
2018-12-22T22:43:42.884Z,4.03
2018-12-22T22:46:11.154Z,3.72
2018-12-22T22:48:39.275Z,4.17
2018-12-22T22:51:07.436Z,3.83
2018-12-22T22:53:35.683Z,3.98
2018-12-22T22:56:03.911Z,3.87
2018-12-22T22:58:32.056Z,3.70
2018-12-22T23:01:00.388Z,4.22
2018-12-22T23:03:28.483Z,4.33
2018-12-22T23:05:56.715Z,4.17
2018-12-22T23:08:24.876Z,4.15
2018-12-22T23:10:53.136Z,4.12
2018-12-22T23:13:21.326Z,4.35
2018-12-22T23:15:49.439Z,4.80
2018-12-22T23:18:17.591Z,4.20
2018-12-22T23:20:45.792Z,4.53
2018-12-22T23:23:13.924Z,4.70
2018-12-22T23:25:42.260Z,4.40
2018-12-22T23:28:10.451Z,4.10
2018-12-22T23:30:38.649Z,3.87
2018-12-22T23:33:06.924Z,4.03
2018-12-22T23:35:35.158Z,4.25
2018-12-22T23:38:03.295Z,3.98
2018-12-22T23:40:31.530Z,3.65
2018-12-22T23:42:59.725Z,3.77
2018-12-22T23:45:27.939Z,4.12
2018-12-22T23:47:56.235Z,3.62
2018-12-22T23:50:24.375Z,3.70
2018-12-22T23:52:52.670Z,3.65
2018-12-22T23:55:20.823Z,3.83
2018-12-22T23:57:48.992Z,4.80
